createdAt,value
2022-10-31T00:01:26.753Z,14.85
2022-10-31T00:03:57.269Z,14.56
2022-10-31T00:06:26.176Z,13.35
2022-10-31T00:08:56.482Z,11.44
2022-10-31T00:11:25.148Z,10.96
2022-10-31T00:13:52.674Z,9.99
2022-10-31T00:16:25.126Z,12.32
2022-10-31T00:18:53.489Z,13.24
2022-10-31T00:21:21.095Z,12.97
2022-10-31T00:23:47.856Z,12.10
2022-10-31T00:26:15.130Z,13.29
2022-10-31T00:28:42.014Z,13.94
2022-10-31T00:31:11.742Z,11.96
2022-10-31T00:33:41.597Z,12.37
2022-10-31T00:36:13.823Z,10.39
2022-10-31T00:38:43.907Z,12.89
2022-10-31T00:41:17.788Z,10.58
2022-10-31T00:43:44.864Z,12.66
2022-10-31T00:46:13.633Z,11.37
2022-10-31T00:48:42.139Z,12.35
2022-10-31T00:51:10.297Z,13.40
2022-10-31T00:53:37.178Z,10.21
2022-10-31T00:56:04.660Z,11.93
2022-10-31T00:58:31.574Z,10.85
2022-10-31T01:00:58.544Z,9.91
2022-10-31T01:03:30.733Z,12.17
2022-10-31T01:05:59.292Z,12.16
2022-10-31T01:08:26.845Z,14.12
2022-10-31T01:11:16.061Z,16.54
2022-10-31T01:13:43.492Z,17.41
2022-10-31T01:16:13.656Z,17.19
2022-10-31T01:18:42.622Z,15.33
2022-10-31T01:21:12.264Z,15.24
2022-10-31T01:23:40.091Z,15.39
2022-10-31T01:26:10.820Z,16.14
2022-10-31T01:28:45.828Z,16.39
2022-10-31T01:31:12.717Z,16.30
2022-10-31T01:33:42.034Z,15.46
2022-10-31T01:36:24.281Z,15.22
2022-10-31T01:38:55.892Z,15.83
2022-10-31T01:41:26.533Z,17.22
2022-10-31T01:43:59.428Z,16.62
2022-10-31T01:46:35.740Z,16.84
2022-10-31T01:49:07.308Z,16.82
2022-10-31T01:51:39.929Z,16.64
2022-10-31T01:54:12.449Z,16.37
2022-10-31T01:56:42.371Z,16.44
2022-10-31T01:59:16.117Z,16.46
2022-10-31T02:01:44.011Z,16.34
2022-10-31T02:04:11.386Z,15.44
2022-10-31T02:07:03.551Z,16.37
2022-10-31T02:09:32.214Z,15.85
2022-10-31T02:12:00.448Z,15.88
2022-10-31T02:14:30.108Z,15.48
2022-10-31T02:16:58.241Z,15.99
2022-10-31T02:19:52.522Z,16.29
2022-10-31T02:22:37.501Z,16.91
2022-10-31T02:25:19.360Z,16.79
2022-10-31T02:28:01.372Z,16.50
2022-10-31T02:30:46.078Z,14.90
2022-10-31T02:33:40.283Z,14.57
2022-10-31T02:36:29.880Z,14.52
2022-10-31T02:39:23.205Z,13.17
2022-10-31T02:42:08.856Z,15.32
2022-10-31T02:44:46.574Z,15.52
2022-10-31T02:47:17.663Z,13.40
2022-10-31T02:50:05.927Z,14.89
2022-10-31T02:52:34.955Z,15.88
2022-10-31T02:55:14.457Z,15.82
2022-10-31T02:57:43.601Z,16.04
2022-10-31T03:00:11.778Z,15.35
2022-10-31T03:03:00.548Z,14.85
2022-10-31T03:05:39.061Z,14.97
2022-10-31T03:08:32.881Z,14.73
2022-10-31T03:11:05.433Z,14.14
2022-10-31T03:13:43.179Z,15.55
2022-10-31T03:16:19.495Z,15.93
2022-10-31T03:19:10.584Z,12.69
2022-10-31T03:21:47.779Z,12.42
2022-10-31T03:24:17.077Z,15.32
2022-10-31T03:26:49.116Z,13.91
2022-10-31T03:29:19.006Z,14.74
2022-10-31T03:31:52.988Z,14.57
2022-10-31T03:34:22.185Z,14.69
2022-10-31T03:36:53.085Z,15.49
2022-10-31T03:39:23.324Z,15.70
2022-10-31T03:41:58.368Z,15.15
2022-10-31T03:44:30.564Z,14.82
2022-10-31T03:47:01.645Z,12.85
2022-10-31T03:49:30.123Z,8.75
2022-10-31T03:52:17.154Z,13.29
2022-10-31T03:54:47.738Z,13.40
2022-10-31T03:57:32.639Z,12.92
2022-10-31T04:00:07.172Z,14.74
2022-10-31T04:02:54.933Z,14.82
2022-10-31T04:05:22.548Z,15.03
2022-10-31T04:07:56.108Z,15.30
2022-10-31T04:10:28.658Z,14.00
2022-10-31T04:13:04.731Z,14.82
2022-10-31T04:15:41.021Z,15.16
2022-10-31T04:18:07.959Z,14.18
2022-10-31T04:20:42.772Z,12.61
2022-10-31T04:23:30.010Z,12.83
2022-10-31T04:25:57.770Z,12.34
2022-10-31T04:28:24.850Z,12.93
2022-10-31T04:30:52.342Z,13.82
2022-10-31T04:33:19.650Z,14.05
2022-10-31T04:35:47.944Z,13.13
2022-10-31T04:38:14.732Z,14.44
2022-10-31T04:40:44.016Z,12.49
2022-10-31T04:43:16.594Z,13.01
2022-10-31T04:45:45.215Z,13.40
2022-10-31T04:48:14.128Z,13.38
2022-10-31T04:50:43.826Z,13.59
2022-10-31T04:53:10.600Z,13.96
2022-10-31T04:55:50.749Z,13.25
2022-10-31T04:58:20.737Z,14.28
2022-10-31T05:00:48.674Z,14.29
2022-10-31T05:03:15.425Z,13.13
2022-10-31T05:05:43.138Z,14.18
2022-10-31T05:08:09.813Z,13.95
2022-10-31T05:10:37.585Z,12.82
2022-10-31T05:13:05.622Z,12.69
2022-10-31T05:16:11.355Z,13.50
2022-10-31T05:19:07.494Z,12.46
2022-10-31T05:21:52.491Z,13.87
2022-10-31T05:24:22.737Z,11.59
2022-10-31T05:26:50.428Z,11.28
2022-10-31T05:29:17.839Z,12.24
2022-10-31T05:31:44.948Z,12.66
2022-10-31T05:34:24.975Z,14.11
2022-10-31T05:37:20.929Z,14.33
2022-10-31T05:39:47.648Z,14.46
2022-10-31T05:42:16.816Z,14.58
2022-10-31T05:44:45.184Z,12.37
2022-10-31T05:47:23.949Z,13.63
2022-10-31T05:49:56.749Z,12.64
2022-10-31T05:52:44.854Z,14.08
2022-10-31T05:55:34.639Z,12.91
2022-10-31T05:58:14.579Z,11.50
2022-10-31T06:00:49.192Z,13.77
2022-10-31T06:03:16.323Z,12.46
2022-10-31T06:05:50.793Z,11.47
2022-10-31T06:08:22.243Z,12.88
2022-10-31T06:10:49.842Z,13.72
2022-10-31T06:13:22.507Z,14.38
2022-10-31T06:16:03.616Z,14.13
2022-10-31T06:18:36.036Z,14.06
2022-10-31T06:21:02.752Z,14.10
2022-10-31T06:23:30.122Z,13.33
2022-10-31T06:26:16.769Z,11.17
2022-10-31T06:28:44.072Z,13.94
2022-10-31T06:31:22.509Z,14.22
2022-10-31T06:33:49.241Z,13.45
2022-10-31T06:36:16.100Z,14.12
2022-10-31T06:38:44.008Z,14.79
2022-10-31T06:41:11.632Z,12.44
2022-10-31T06:43:43.762Z,14.18
2022-10-31T06:46:30.769Z,13.98
2022-10-31T06:49:35.316Z,13.79
2022-10-31T06:52:06.160Z,14.92
2022-10-31T06:54:32.892Z,14.89
2022-10-31T06:57:00.715Z,14.62
2022-10-31T06:59:29.168Z,14.66
2022-10-31T07:02:01.932Z,15.20
2022-10-31T07:04:30.261Z,15.16
2022-10-31T07:06:57.397Z,15.46
2022-10-31T07:09:24.238Z,15.68
2022-10-31T07:11:53.205Z,15.52
2022-10-31T07:14:20.093Z,15.35
2022-10-31T07:16:51.998Z,16.70
2022-10-31T07:19:24.385Z,19.82
2022-10-31T07:21:51.107Z,21.54
2022-10-31T07:24:17.910Z,17.78
2022-10-31T07:26:48.554Z,21.55
2022-10-31T07:29:15.901Z,22.47
2022-10-31T07:31:42.859Z,22.04
2022-10-31T07:34:15.885Z,21.22
2022-10-31T07:37:01.182Z,22.31
2022-10-31T07:39:27.970Z,23.10
2022-10-31T07:41:54.694Z,23.20
2022-10-31T07:44:21.484Z,23.07
2022-10-31T07:47:06.808Z,21.45
2022-10-31T07:49:52.150Z,25.44
2022-10-31T07:52:37.563Z,25.32
2022-10-31T07:55:28.026Z,26.10
2022-10-31T07:58:03.758Z,25.73
2022-10-31T08:00:33.040Z,26.31
2022-10-31T08:03:08.559Z,26.42
2022-10-31T08:05:53.822Z,25.60
2022-10-31T08:08:36.068Z,26.63
2022-10-31T08:11:05.554Z,27.07
2022-10-31T08:13:32.511Z,26.49
2022-10-31T08:16:04.518Z,27.36
2022-10-31T08:18:34.261Z,24.70
2022-10-31T08:21:01.466Z,22.58
2022-10-31T08:23:28.165Z,24.78
2022-10-31T08:25:58.313Z,24.61
2022-10-31T08:28:25.060Z,28.45
2022-10-31T08:30:53.997Z,27.22
2022-10-31T08:33:39.424Z,25.55
2022-10-31T08:36:26.073Z,25.38
2022-10-31T08:39:05.457Z,28.30
2022-10-31T08:41:32.577Z,31.46
2022-10-31T08:44:02.220Z,29.25
2022-10-31T08:46:30.470Z,29.44
2022-10-31T08:48:57.341Z,32.48
2022-10-31T08:51:24.187Z,33.26
2022-10-31T08:53:53.974Z,32.41
2022-10-31T08:56:35.752Z,31.06
2022-10-31T08:59:06.531Z,31.80
2022-10-31T09:01:56.406Z,32.36
2022-10-31T09:04:24.094Z,31.52
2022-10-31T09:07:19.639Z,30.09
2022-10-31T09:09:38.631Z,31.51
2022-10-31T09:12:05.595Z,31.03
2022-10-31T09:14:51.128Z,32.37
2022-10-31T09:17:31.028Z,28.81
2022-10-31T09:20:17.530Z,29.58
2022-10-31T09:22:46.363Z,26.41
2022-10-31T09:25:13.665Z,28.65
2022-10-31T09:27:43.600Z,28.58
2022-10-31T09:30:12.264Z,29.96
2022-10-31T09:32:40.073Z,25.49
2022-10-31T09:35:07.313Z,23.95
2022-10-31T09:37:34.112Z,25.50
2022-10-31T09:40:02.516Z,24.10
2022-10-31T09:42:48.261Z,23.64
2022-10-31T09:45:33.616Z,27.03
2022-10-31T09:48:19.859Z,28.27
2022-10-31T09:51:18.184Z,25.65
2022-10-31T09:54:01.398Z,25.95
2022-10-31T09:56:31.000Z,26.24
2022-10-31T09:59:03.665Z,25.22
2022-10-31T10:01:41.314Z,24.53
2022-10-31T10:04:33.444Z,26.94
2022-10-31T10:07:40.516Z,26.31
2022-10-31T10:10:52.870Z,25.04
2022-10-31T10:13:48.456Z,25.36
2022-10-31T10:16:27.252Z,25.71
2022-10-31T10:18:59.600Z,22.35
2022-10-31T10:21:46.132Z,23.35
2022-10-31T10:24:26.817Z,24.16
2022-10-31T10:27:09.990Z,22.73
2022-10-31T10:29:48.617Z,21.89
2022-10-31T10:32:25.465Z,22.47
2022-10-31T10:35:01.315Z,22.55
2022-10-31T10:37:36.510Z,21.83
2022-10-31T10:40:27.466Z,22.37
2022-10-31T10:43:24.889Z,21.72
2022-10-31T10:46:41.413Z,24.47
2022-10-31T10:49:18.469Z,23.50
2022-10-31T10:52:19.442Z,24.33
2022-10-31T10:55:15.834Z,25.02
2022-10-31T10:58:03.702Z,25.36
2022-10-31T11:00:50.737Z,25.85
2022-10-31T11:03:19.866Z,23.96
2022-10-31T11:05:59.818Z,24.03
2022-10-31T11:08:34.850Z,24.58
2022-10-31T11:11:04.952Z,22.86
2022-10-31T11:13:34.052Z,20.60
2022-10-31T11:16:08.517Z,26.39
2022-10-31T11:18:39.083Z,23.46
2022-10-31T11:21:06.915Z,22.63
2022-10-31T11:23:34.603Z,24.14
2022-10-31T11:26:04.817Z,21.96
2022-10-31T11:28:35.994Z,24.81
2022-10-31T11:31:13.495Z,24.05
2022-10-31T11:33:50.419Z,21.76
2022-10-31T11:36:17.444Z,26.26
2022-10-31T11:38:45.047Z,24.41
2022-10-31T11:41:19.437Z,24.85
2022-10-31T11:44:12.977Z,25.06
2022-10-31T11:46:43.794Z,26.01
2022-10-31T11:49:20.912Z,25.12
2022-10-31T11:51:54.797Z,24.58
2022-10-31T11:54:34.135Z,26.71
2022-10-31T11:57:01.116Z,26.18
2022-10-31T11:59:31.253Z,28.25
2022-10-31T12:02:02.660Z,27.35
2022-10-31T12:04:36.171Z,26.44
2022-10-31T12:07:04.067Z,26.90
2022-10-31T12:09:35.593Z,24.34
2022-10-31T12:12:23.671Z,27.12
2022-10-31T12:15:15.532Z,25.83
2022-10-31T12:17:54.228Z,23.62
2022-10-31T12:20:45.605Z,27.27
2022-10-31T12:23:19.306Z,26.08
2022-10-31T12:26:06.919Z,26.25
2022-10-31T12:28:48.828Z,27.53
2022-10-31T12:32:02.878Z,27.48
2022-10-31T12:35:01.173Z,26.48
2022-10-31T12:37:39.927Z,25.51
2022-10-31T12:40:40.365Z,26.64
2022-10-31T12:43:45.354Z,27.11
2022-10-31T12:46:54.669Z,26.41
2022-10-31T12:49:39.537Z,26.09
2022-10-31T12:52:23.771Z,27.14
2022-10-31T12:55:01.761Z,26.33
2022-10-31T12:57:40.908Z,24.35
2022-10-31T13:00:19.337Z,27.31
2022-10-31T13:03:20.193Z,25.91
2022-10-31T13:05:55.793Z,26.41
2022-10-31T13:09:03.525Z,26.28
2022-10-31T13:11:46.661Z,25.83
2022-10-31T13:14:30.936Z,26.56
2022-10-31T13:16:59.429Z,24.87
2022-10-31T13:19:33.192Z,25.71
2022-10-31T13:22:13.564Z,27.40
2022-10-31T13:25:03.417Z,26.70
2022-10-31T13:27:43.472Z,26.18
2022-10-31T13:30:19.905Z,28.95
2022-10-31T13:33:10.796Z,24.82
2022-10-31T13:35:54.508Z,27.07
2022-10-31T13:38:31.971Z,25.01
2022-10-31T13:41:14.889Z,26.53
2022-10-31T13:44:01.903Z,25.28
2022-10-31T13:46:37.014Z,25.84
2022-10-31T13:49:05.864Z,27.34
2022-10-31T13:51:36.151Z,25.42
2022-10-31T13:54:22.727Z,25.99
2022-10-31T13:56:52.495Z,24.45
2022-10-31T13:59:25.108Z,24.29
2022-10-31T14:01:56.201Z,25.20
2022-10-31T14:04:29.336Z,25.34
2022-10-31T14:06:58.170Z,24.92
2022-10-31T14:09:30.000Z,24.65
2022-10-31T14:11:59.904Z,24.97
2022-10-31T14:14:34.265Z,25.44
2022-10-31T14:17:02.219Z,26.26
2022-10-31T14:19:29.080Z,26.09
2022-10-31T14:21:56.064Z,26.22
2022-10-31T14:24:25.509Z,25.11
2022-10-31T14:27:05.252Z,27.17
2022-10-31T14:29:35.024Z,26.50
2022-10-31T14:32:15.464Z,24.80
2022-10-31T14:34:42.841Z,26.08
2022-10-31T14:37:40.058Z,27.04
2022-10-31T14:40:19.228Z,27.17
2022-10-31T14:43:01.614Z,26.72
2022-10-31T14:45:37.979Z,25.13
2022-10-31T14:48:44.134Z,24.07
2022-10-31T14:51:19.844Z,21.70
2022-10-31T14:53:55.288Z,18.58
2022-10-31T14:56:28.673Z,19.88
2022-10-31T14:59:00.485Z,21.80
2022-10-31T15:01:40.699Z,22.92
2022-10-31T15:04:25.193Z,20.97
2022-10-31T15:07:25.578Z,20.66
2022-10-31T15:10:05.777Z,22.59
2022-10-31T15:12:35.793Z,21.63
2022-10-31T15:15:20.913Z,21.34
2022-10-31T15:17:55.339Z,20.07
2022-10-31T15:20:27.241Z,20.91
2022-10-31T15:22:57.793Z,22.11
2022-10-31T15:25:27.225Z,21.83
2022-10-31T15:27:54.198Z,20.07
2022-10-31T15:30:27.016Z,23.48
2022-10-31T15:32:58.622Z,20.38
2022-10-31T15:35:29.315Z,20.55
2022-10-31T15:37:58.465Z,19.47
2022-10-31T15:40:27.392Z,20.97
2022-10-31T15:43:07.844Z,20.67
2022-10-31T15:45:36.477Z,21.06
2022-10-31T15:48:17.825Z,20.28
2022-10-31T15:50:56.661Z,19.72
2022-10-31T15:53:26.525Z,18.87
2022-10-31T15:55:59.744Z,19.79
2022-10-31T15:58:28.109Z,21.14
2022-10-31T16:01:00.244Z,21.00
2022-10-31T16:03:30.438Z,20.29
2022-10-31T16:06:00.104Z,20.15
2022-10-31T16:08:29.781Z,20.88
2022-10-31T16:11:08.567Z,18.80
2022-10-31T16:13:39.302Z,20.29
2022-10-31T16:16:35.557Z,21.27
2022-10-31T16:19:06.362Z,19.44
2022-10-31T16:21:36.627Z,21.57
2022-10-31T16:24:32.152Z,21.56
2022-10-31T16:27:07.368Z,19.94
2022-10-31T16:29:43.103Z,19.07
2022-10-31T16:32:28.432Z,18.81
2022-10-31T16:35:12.980Z,19.48
2022-10-31T16:37:41.441Z,18.61
2022-10-31T16:40:11.239Z,18.70
2022-10-31T16:42:38.014Z,20.30
2022-10-31T16:45:07.481Z,20.49
2022-10-31T16:47:34.185Z,19.30
2022-10-31T16:50:02.216Z,19.52
2022-10-31T16:52:38.075Z,20.80
2022-10-31T16:55:06.805Z,19.75
2022-10-31T16:57:33.857Z,19.48
2022-10-31T17:00:00.684Z,16.84
2022-10-31T17:02:27.553Z,16.88
2022-10-31T17:04:56.829Z,19.82
2022-10-31T17:07:23.912Z,19.19
2022-10-31T17:09:51.449Z,19.45
2022-10-31T17:12:23.182Z,18.80
2022-10-31T17:14:52.216Z,17.61
2022-10-31T17:17:19.275Z,18.99
2022-10-31T17:19:45.994Z,18.36
2022-10-31T17:22:15.288Z,18.47
2022-10-31T17:24:42.024Z,16.65
2022-10-31T17:27:08.715Z,17.60
2022-10-31T17:29:36.365Z,17.92
2022-10-31T17:32:04.210Z,16.78
2022-10-31T17:34:31.181Z,19.08
2022-10-31T17:36:57.927Z,20.25
2022-10-31T17:39:24.621Z,19.37
2022-10-31T17:41:52.716Z,20.65
2022-10-31T17:44:20.531Z,20.51
2022-10-31T17:46:47.918Z,20.91
2022-10-31T17:49:14.777Z,20.78
2022-10-31T17:51:41.634Z,20.62
2022-10-31T17:54:09.270Z,16.63
2022-10-31T17:56:36.413Z,19.90
2022-10-31T17:59:03.556Z,20.56
2022-10-31T18:01:30.460Z,19.20
2022-10-31T18:03:57.396Z,20.61
2022-10-31T18:06:24.214Z,20.37
2022-10-31T18:08:52.257Z,19.52
2022-10-31T18:11:22.817Z,17.42
2022-10-31T18:13:55.457Z,17.85
2022-10-31T18:16:23.580Z,17.50
2022-10-31T18:18:53.332Z,18.68
2022-10-31T18:21:22.206Z,20.07
2022-10-31T18:23:53.303Z,19.86
2022-10-31T18:26:19.953Z,20.19
2022-10-31T18:28:46.672Z,17.62
2022-10-31T18:31:13.525Z,19.67
2022-10-31T18:33:42.456Z,18.08
2022-10-31T18:36:11.136Z,18.08
2022-10-31T18:38:40.469Z,16.47
2022-10-31T18:41:09.377Z,17.43
2022-10-31T18:43:36.983Z,19.11
2022-10-31T18:46:09.670Z,18.80
2022-10-31T18:48:38.265Z,17.90
2022-10-31T18:51:07.792Z,18.60
2022-10-31T18:53:35.474Z,15.02
2022-10-31T18:56:07.251Z,13.54
2022-10-31T18:58:33.939Z,15.16
2022-10-31T19:01:09.771Z,15.42
2022-10-31T19:03:38.388Z,16.89
2022-10-31T19:06:05.633Z,17.94
2022-10-31T19:08:32.703Z,19.06
2022-10-31T19:11:13.919Z,16.00
2022-10-31T19:13:42.715Z,16.69
2022-10-31T19:16:14.138Z,17.46
2022-10-31T19:18:42.440Z,18.73
2022-10-31T19:21:11.856Z,15.86
2022-10-31T19:23:39.357Z,17.08
2022-10-31T19:26:06.119Z,16.62
2022-10-31T19:28:36.727Z,17.05
2022-10-31T19:31:04.924Z,18.38
2022-10-31T19:33:35.111Z,17.51
2022-10-31T19:36:08.446Z,18.13
2022-10-31T19:38:37.619Z,16.29
2022-10-31T19:41:07.608Z,17.27
2022-10-31T19:43:34.832Z,16.97
2022-10-31T19:46:03.796Z,18.33
2022-10-31T19:48:30.938Z,18.04
2022-10-31T19:51:05.396Z,17.66
2022-10-31T19:53:32.773Z,17.74
2022-10-31T19:56:00.292Z,17.33
2022-10-31T19:58:27.861Z,17.07
2022-10-31T20:00:55.019Z,17.35
2022-10-31T20:03:22.984Z,17.66
2022-10-31T20:05:50.729Z,18.40
2022-10-31T20:08:20.236Z,17.65
2022-10-31T20:11:12.982Z,16.30
2022-10-31T20:13:41.027Z,17.19
2022-10-31T20:16:10.524Z,17.50
2022-10-31T20:18:39.112Z,17.15
2022-10-31T20:21:14.668Z,17.40
2022-10-31T20:23:42.079Z,16.95
2022-10-31T20:26:12.790Z,17.27
2022-10-31T20:28:43.367Z,17.58
2022-10-31T20:31:14.373Z,15.84
2022-10-31T20:33:41.438Z,16.62
2022-10-31T20:36:09.583Z,17.32
2022-10-31T20:38:41.408Z,15.20
2022-10-31T20:41:10.533Z,15.25
2022-10-31T20:43:39.374Z,15.50
2022-10-31T20:46:14.643Z,15.03
2022-10-31T20:48:41.819Z,16.24
2022-10-31T20:53:51.466Z,12.48
2022-10-31T20:56:20.527Z,13.50
2022-10-31T20:58:47.806Z,13.67
2022-10-31T21:01:16.204Z,15.20
2022-10-31T21:03:43.776Z,14.95
2022-10-31T21:06:11.581Z,15.71
2022-10-31T21:08:40.220Z,14.92
2022-10-31T21:11:18.832Z,15.43
2022-10-31T21:13:47.445Z,15.18
2022-10-31T21:16:23.511Z,16.03
2022-10-31T21:18:51.247Z,15.26
2022-10-31T21:21:30.772Z,14.80
2022-10-31T21:24:05.814Z,15.11
2022-10-31T21:26:38.716Z,15.05
2022-10-31T21:29:06.799Z,15.21
2022-10-31T21:31:35.193Z,15.36
2022-10-31T21:34:01.934Z,15.70
2022-10-31T21:36:28.636Z,15.06
2022-10-31T21:38:56.052Z,15.56
2022-10-31T21:41:25.165Z,12.70
2022-10-31T21:43:55.004Z,11.09
2022-10-31T21:46:25.367Z,14.39
2022-10-31T21:48:52.580Z,13.46
2022-10-31T21:51:29.460Z,15.30
2022-10-31T21:54:15.159Z,15.87
2022-10-31T21:56:41.939Z,13.94
2022-10-31T21:59:09.972Z,14.02
2022-10-31T22:01:37.278Z,15.58
2022-10-31T22:04:04.918Z,13.34
2022-10-31T22:06:31.796Z,15.17
2022-10-31T22:09:00.711Z,14.49
2022-10-31T22:11:28.566Z,13.41
2022-10-31T22:13:58.340Z,15.48
2022-10-31T22:16:26.584Z,14.17
2022-10-31T22:18:56.425Z,15.23
2022-10-31T22:21:26.250Z,15.10
2022-10-31T22:24:01.799Z,15.93
2022-10-31T22:26:32.656Z,14.77
2022-10-31T22:29:00.728Z,14.59
2022-10-31T22:31:28.711Z,15.01
2022-10-31T22:33:56.208Z,13.77
2022-10-31T22:36:27.735Z,13.19
2022-10-31T22:38:55.923Z,14.87
2022-10-31T22:41:34.032Z,15.05
2022-10-31T22:44:00.842Z,13.93
2022-10-31T22:46:30.127Z,15.02
2022-10-31T22:48:59.957Z,15.04
2022-10-31T22:51:34.627Z,14.14
2022-10-31T22:54:01.486Z,14.32
2022-10-31T22:56:31.906Z,14.33
2022-10-31T22:58:59.310Z,14.98
2022-10-31T23:01:29.627Z,13.56
2022-10-31T23:03:56.514Z,12.23
2022-10-31T23:06:25.800Z,14.33
2022-10-31T23:08:54.772Z,14.62
2022-10-31T23:11:33.782Z,12.35
2022-10-31T23:14:10.167Z,9.87
2022-10-31T23:16:41.169Z,11.13
2022-10-31T23:19:18.190Z,11.65
2022-10-31T23:21:55.880Z,11.56
2022-10-31T23:24:25.772Z,12.07
2022-10-31T23:27:10.031Z,11.02
2022-10-31T23:29:46.304Z,10.50
2022-10-31T23:32:15.039Z,9.67
2022-10-31T23:34:42.499Z,8.38
2022-10-31T23:37:09.990Z,8.30
2022-10-31T23:39:37.156Z,8.58
2022-10-31T23:42:04.100Z,8.80
2022-10-31T23:44:30.808Z,10.08
2022-10-31T23:46:57.691Z,11.79
2022-10-31T23:49:25.482Z,11.92
2022-10-31T23:51:52.533Z,8.90
2022-10-31T23:54:19.227Z,8.68
2022-10-31T23:56:45.925Z,10.59
2022-10-31T23:59:12.592Z,10.77
